createdAt,value
2023-05-24T00:01:56.858Z,21.50
2023-05-24T00:04:25.122Z,21.50
2023-05-24T00:06:54.809Z,21.60
2023-05-24T00:09:22.087Z,21.50
2023-05-24T00:11:48.929Z,21.50
2023-05-24T00:14:15.849Z,21.60
2023-05-24T00:16:42.674Z,21.60
2023-05-24T00:19:11.080Z,21.50
2023-05-24T00:21:37.977Z,21.60
2023-05-24T00:24:04.850Z,21.50
2023-05-24T00:26:31.537Z,21.60
2023-05-24T00:28:58.172Z,21.60
2023-05-24T00:31:24.915Z,21.50
2023-05-24T00:33:51.678Z,21.50
2023-05-24T00:36:18.375Z,21.50
2023-05-24T00:38:45.064Z,21.50
2023-05-24T00:41:11.775Z,21.50
2023-05-24T00:43:38.536Z,21.50
2023-05-24T00:46:18.797Z,21.50
2023-05-24T00:48:45.833Z,21.60
2023-05-24T00:51:13.722Z,21.50
2023-05-24T00:53:42.352Z,21.50
2023-05-24T00:56:09.351Z,21.50
2023-05-24T00:58:36.374Z,21.50
2023-05-24T01:01:03.922Z,21.50
2023-05-24T01:03:30.849Z,21.50
2023-05-24T01:06:03.062Z,21.50
2023-05-24T01:08:40.444Z,21.50
2023-05-24T01:11:45.947Z,21.50
2023-05-24T01:14:26.462Z,21.50
2023-05-24T01:17:34.579Z,21.50
2023-05-24T01:20:06.852Z,21.50
2023-05-24T01:22:58.267Z,21.50
2023-05-24T01:26:00.668Z,21.50
2023-05-24T01:28:27.826Z,21.50
2023-05-24T01:30:55.749Z,21.50
2023-05-24T01:33:22.428Z,21.40
2023-05-24T01:35:49.125Z,21.50
2023-05-24T01:38:16.122Z,21.40
2023-05-24T01:40:44.065Z,21.40
2023-05-24T01:43:34.830Z,21.40
2023-05-24T01:46:19.812Z,21.40
2023-05-24T01:49:16.808Z,21.40
2023-05-24T01:51:58.739Z,21.40
2023-05-24T01:54:28.351Z,21.40
2023-05-24T01:56:57.313Z,21.40
2023-05-24T01:59:25.978Z,21.40
2023-05-24T02:01:53.004Z,21.40
2023-05-24T02:04:19.693Z,21.40
2023-05-24T02:06:46.409Z,21.40
2023-05-24T02:09:13.092Z,21.40
2023-05-24T02:11:39.890Z,21.40
2023-05-24T02:14:06.611Z,21.40
2023-05-24T02:16:33.335Z,21.40
2023-05-24T02:18:59.991Z,21.40
2023-05-24T02:21:28.732Z,21.40
2023-05-24T02:23:55.370Z,21.40
2023-05-24T02:26:22.009Z,21.40
2023-05-24T02:28:48.620Z,21.40
2023-05-24T02:31:15.491Z,21.40
2023-05-24T02:33:42.456Z,21.40
2023-05-24T02:36:09.286Z,21.40
2023-05-24T02:38:37.099Z,21.40
2023-05-24T02:41:03.759Z,21.40
2023-05-24T02:43:30.430Z,21.40
2023-05-24T02:45:57.126Z,21.40
2023-05-24T02:48:23.825Z,21.40
2023-05-24T02:50:50.510Z,21.40
2023-05-24T02:53:17.174Z,21.40
2023-05-24T02:55:44.044Z,21.40
2023-05-24T02:58:12.063Z,21.40
2023-05-24T03:00:38.756Z,21.40
2023-05-24T03:03:05.638Z,21.40
2023-05-24T03:05:32.412Z,21.40
2023-05-24T03:07:59.031Z,21.40
2023-05-24T03:10:25.666Z,21.40
2023-05-24T03:12:52.334Z,21.40
2023-05-24T03:15:19.362Z,21.40
2023-05-24T03:17:46.119Z,21.40
2023-05-24T03:20:13.042Z,21.40
2023-05-24T03:22:39.742Z,21.40
2023-05-24T03:25:08.703Z,21.40
2023-05-24T03:27:36.451Z,21.40
2023-05-24T03:30:03.387Z,21.40
2023-05-24T03:32:30.210Z,21.40
2023-05-24T03:34:59.304Z,21.40
2023-05-24T03:37:26.216Z,21.40
2023-05-24T03:39:52.888Z,21.40
2023-05-24T03:42:19.766Z,21.40
2023-05-24T03:44:46.539Z,21.40
2023-05-24T03:47:13.286Z,21.40
2023-05-24T03:49:39.931Z,21.40
2023-05-24T03:52:06.586Z,21.40
2023-05-24T03:54:33.203Z,21.40
2023-05-24T03:56:59.905Z,21.40
2023-05-24T03:59:27.039Z,21.30
2023-05-24T04:01:54.447Z,21.40
2023-05-24T04:04:21.154Z,21.40
2023-05-24T04:06:47.895Z,21.40
2023-05-24T04:09:14.709Z,20.70
2023-05-24T04:11:41.464Z,21.40
2023-05-24T04:14:08.162Z,21.40
2023-05-24T04:16:34.860Z,21.40
2023-05-24T04:19:03.842Z,21.40
2023-05-24T04:21:31.894Z,21.40
2023-05-24T04:24:01.356Z,21.30
2023-05-24T04:26:30.999Z,21.40
2023-05-24T04:28:58.132Z,21.40
2023-05-24T04:31:26.134Z,21.40
2023-05-24T04:33:52.956Z,21.30
2023-05-24T04:36:21.994Z,21.30
2023-05-24T04:38:48.741Z,21.30
2023-05-24T04:41:15.390Z,21.30
2023-05-24T04:43:42.093Z,21.30
2023-05-24T04:48:36.723Z,21.30
2023-05-24T04:51:03.517Z,21.40
2023-05-24T04:53:30.429Z,21.30
2023-05-24T04:55:57.388Z,21.40
2023-05-24T04:58:24.266Z,21.40
2023-05-24T05:00:51.168Z,21.30
2023-05-24T05:03:18.170Z,21.40
2023-05-24T05:05:46.259Z,21.30
2023-05-24T05:08:14.012Z,21.30
2023-05-24T05:10:41.064Z,21.30
2023-05-24T05:13:07.876Z,21.30
2023-05-24T05:15:34.519Z,21.10
2023-05-24T05:18:01.253Z,21.30
2023-05-24T05:20:27.956Z,21.30
2023-05-24T05:22:54.656Z,21.30
2023-05-24T05:25:21.459Z,21.30
2023-05-24T05:27:48.313Z,21.40
2023-05-24T05:30:15.307Z,21.40
2023-05-24T05:32:42.089Z,21.40
2023-05-24T05:35:09.223Z,21.30
2023-05-24T05:37:35.877Z,21.40
2023-05-24T05:40:03.861Z,21.30
2023-05-24T05:42:30.605Z,21.40
2023-05-24T05:44:57.716Z,20.50
2023-05-24T05:47:24.412Z,21.30
2023-05-24T05:49:51.109Z,21.30
2023-05-24T05:52:17.791Z,21.40
2023-05-24T05:54:44.585Z,21.30
2023-05-24T05:57:11.625Z,21.30
2023-05-24T05:59:38.493Z,21.40
2023-05-24T06:02:06.731Z,21.40
2023-05-24T06:04:34.166Z,21.30
2023-05-24T06:07:01.147Z,21.40
2023-05-24T06:09:27.868Z,21.40
2023-05-24T06:11:54.593Z,21.40
2023-05-24T06:14:22.401Z,21.40
2023-05-24T06:16:49.413Z,21.40
2023-05-24T06:19:16.759Z,21.40
2023-05-24T06:21:48.213Z,21.40
2023-05-24T06:24:15.873Z,21.40
2023-05-24T06:26:43.038Z,21.40
2023-05-24T06:29:09.734Z,21.40
2023-05-24T06:31:36.470Z,21.40
2023-05-24T06:34:04.680Z,21.40
2023-05-24T06:36:43.023Z,21.40
2023-05-24T06:39:10.897Z,21.40
2023-05-24T06:41:38.892Z,21.40
2023-05-24T06:44:05.730Z,21.40
2023-05-24T06:46:32.612Z,21.40
2023-05-24T06:48:59.421Z,21.40
2023-05-24T06:51:26.409Z,21.40
2023-05-24T06:53:53.208Z,21.40
2023-05-24T06:56:19.920Z,21.40
2023-05-24T06:58:46.792Z,21.40
2023-05-24T07:01:14.364Z,21.40
2023-05-24T07:03:41.371Z,21.40
2023-05-24T07:06:09.999Z,21.40
2023-05-24T07:08:36.815Z,21.40
2023-05-24T07:11:03.561Z,21.40
2023-05-24T07:13:30.323Z,21.40
2023-05-24T07:15:57.054Z,21.40
2023-05-24T07:18:23.746Z,21.40
2023-05-24T07:20:50.553Z,21.50
2023-05-24T07:23:17.532Z,21.40
2023-05-24T07:25:44.182Z,21.40
2023-05-24T07:28:11.061Z,21.40
2023-05-24T07:30:39.274Z,21.40
2023-05-24T07:33:06.057Z,21.40
2023-05-24T07:35:32.753Z,21.40
2023-05-24T07:37:59.417Z,21.50
2023-05-24T07:40:26.550Z,21.40
2023-05-24T07:42:53.311Z,21.40
2023-05-24T07:45:20.477Z,21.40
2023-05-24T07:47:47.284Z,21.40
2023-05-24T07:50:14.005Z,21.40
2023-05-24T07:52:40.710Z,21.40
2023-05-24T07:55:07.680Z,21.50
2023-05-24T07:57:34.364Z,21.50
2023-05-24T08:00:07.113Z,21.40
2023-05-24T08:02:34.726Z,21.40
2023-05-24T08:05:01.534Z,21.50
2023-05-24T08:07:28.939Z,21.50
2023-05-24T08:09:55.743Z,21.50
2023-05-24T08:12:22.518Z,21.50
2023-05-24T08:14:49.186Z,21.50
2023-05-24T08:17:15.822Z,21.50
2023-05-24T08:19:42.445Z,21.50
2023-05-24T08:22:09.188Z,21.50
2023-05-24T08:24:35.834Z,21.40
2023-05-24T08:27:04.155Z,21.50
2023-05-24T08:29:30.867Z,21.40
2023-05-24T08:31:58.088Z,21.40
2023-05-24T08:34:24.744Z,21.50
2023-05-24T08:36:51.598Z,21.50
2023-05-24T08:39:18.292Z,21.50
2023-05-24T08:41:51.590Z,21.40
2023-05-24T08:44:25.050Z,21.40
2023-05-24T08:46:53.781Z,21.50
2023-05-24T08:49:21.433Z,21.40
2023-05-24T08:51:48.528Z,21.40
2023-05-24T08:54:16.313Z,21.40
2023-05-24T08:56:43.844Z,21.40
2023-05-24T08:59:13.388Z,21.40
2023-05-24T09:01:41.727Z,21.40
2023-05-24T09:04:09.441Z,21.40
2023-05-24T09:06:36.992Z,21.40
2023-05-24T09:09:04.554Z,21.40
2023-05-24T09:11:33.873Z,21.40
2023-05-24T09:14:01.870Z,21.40
2023-05-24T09:16:29.316Z,21.40
2023-05-24T09:18:56.190Z,21.40
2023-05-24T09:21:23.000Z,21.40
2023-05-24T09:23:49.780Z,21.40
2023-05-24T09:26:20.423Z,21.40
2023-05-24T09:28:47.836Z,21.40
2023-05-24T09:31:14.485Z,21.40
2023-05-24T09:33:41.159Z,21.40
2023-05-24T09:36:08.245Z,21.50
2023-05-24T09:38:36.203Z,21.40
2023-05-24T09:41:05.055Z,21.40
2023-05-24T09:43:34.543Z,21.40
2023-05-24T09:46:04.871Z,21.40
2023-05-24T09:48:32.012Z,21.40
2023-05-24T09:51:11.514Z,21.40
2023-05-24T09:53:38.609Z,21.40
2023-05-24T09:56:10.105Z,21.40
2023-05-24T09:58:36.966Z,21.40
2023-05-24T10:01:08.829Z,21.40
2023-05-24T10:03:37.442Z,21.40
2023-05-24T10:06:07.575Z,21.50
2023-05-24T10:08:35.890Z,21.40
2023-05-24T10:11:04.643Z,21.40
2023-05-24T10:13:35.557Z,21.30
2023-05-24T10:16:03.679Z,21.40
2023-05-24T10:18:30.407Z,21.40
2023-05-24T10:21:00.900Z,21.40
2023-05-24T10:23:31.326Z,21.40
2023-05-24T10:26:12.524Z,21.40
2023-05-24T10:28:44.546Z,21.40
2023-05-24T10:31:15.645Z,21.40
2023-05-24T10:33:44.698Z,21.40
2023-05-24T10:36:14.397Z,21.40
2023-05-24T10:38:41.466Z,21.40
2023-05-24T10:41:09.145Z,21.40
2023-05-24T10:43:37.378Z,21.40
2023-05-24T10:46:05.125Z,21.40
2023-05-24T10:48:32.863Z,21.50
2023-05-24T10:51:21.562Z,21.40
2023-05-24T10:53:50.012Z,21.40
2023-05-24T10:56:17.608Z,21.40
2023-05-24T10:58:57.820Z,21.40
2023-05-24T11:01:29.196Z,21.40
2023-05-24T11:04:16.063Z,21.40
2023-05-24T11:06:48.260Z,21.40
2023-05-24T11:09:20.236Z,21.40
2023-05-24T11:11:48.819Z,21.50
2023-05-24T11:14:20.017Z,21.50
2023-05-24T11:16:48.797Z,21.50
2023-05-24T11:19:36.461Z,21.50
2023-05-24T11:22:09.232Z,21.40
2023-05-24T11:24:36.923Z,21.50
2023-05-24T11:27:03.889Z,21.40
2023-05-24T11:29:30.743Z,21.40
2023-05-24T11:32:05.879Z,21.50
2023-05-24T11:34:33.456Z,21.40
2023-05-24T11:37:05.867Z,21.40
2023-05-24T11:39:35.384Z,21.40
2023-05-24T11:42:06.353Z,21.50
2023-05-24T11:44:33.702Z,21.50
2023-05-24T11:47:01.811Z,21.50
2023-05-24T11:49:29.225Z,21.40
2023-05-24T11:51:57.083Z,21.50
2023-05-24T11:54:25.320Z,21.40
2023-05-24T11:56:53.054Z,21.50
2023-05-24T11:59:27.628Z,21.40
2023-05-24T12:02:00.404Z,21.50
2023-05-24T12:04:29.261Z,21.50
2023-05-24T12:06:56.499Z,21.50
2023-05-24T12:09:23.595Z,21.60
2023-05-24T12:11:51.778Z,21.60
2023-05-24T12:14:22.951Z,21.50
2023-05-24T12:16:50.317Z,21.60
2023-05-24T12:19:32.376Z,21.60
2023-05-24T12:22:08.364Z,21.60
2023-05-24T12:24:35.886Z,21.60
2023-05-24T12:27:07.637Z,21.50
2023-05-24T12:29:37.051Z,21.50
2023-05-24T12:32:04.589Z,21.40
2023-05-24T12:34:31.243Z,21.40
2023-05-24T12:36:58.357Z,21.40
2023-05-24T12:39:35.137Z,21.30
2023-05-24T12:42:02.911Z,21.30
2023-05-24T12:44:36.462Z,21.20
2023-05-24T12:47:05.524Z,21.20
2023-05-24T12:49:32.784Z,21.20
2023-05-24T12:52:01.690Z,21.30
2023-05-24T12:54:28.939Z,21.30
2023-05-24T12:56:57.763Z,21.30
2023-05-24T12:59:25.850Z,21.30
2023-05-24T13:01:52.939Z,21.40
2023-05-24T13:04:21.316Z,21.40
2023-05-24T13:06:48.624Z,21.40
2023-05-24T13:09:18.090Z,21.40
2023-05-24T13:11:45.502Z,21.40
2023-05-24T13:14:12.773Z,21.40
2023-05-24T13:16:39.744Z,21.50
2023-05-24T13:19:06.604Z,21.40
2023-05-24T13:21:33.573Z,21.50
2023-05-24T13:24:00.554Z,21.50
2023-05-24T13:26:27.540Z,21.50
2023-05-24T13:29:26.634Z,21.50
2023-05-24T13:31:41.776Z,21.50
2023-05-24T13:34:10.679Z,21.50
2023-05-24T13:36:38.020Z,21.50
2023-05-24T13:41:35.547Z,21.60
2023-05-24T13:44:02.491Z,21.60
2023-05-24T13:46:29.675Z,21.60
2023-05-24T13:48:56.980Z,21.60
2023-05-24T13:51:24.353Z,21.60
2023-05-24T13:53:51.227Z,21.60
2023-05-24T13:56:18.597Z,21.60
2023-05-24T13:58:45.804Z,21.70
2023-05-24T14:01:12.603Z,21.70
2023-05-24T14:03:40.998Z,21.70
2023-05-24T14:06:09.000Z,21.50
2023-05-24T14:08:36.181Z,21.40
2023-05-24T14:11:02.942Z,21.30
2023-05-24T14:15:59.271Z,21.20
2023-05-24T14:18:26.644Z,21.20
2023-05-24T14:20:53.399Z,21.10
2023-05-24T14:23:20.058Z,21.10
2023-05-24T14:25:46.926Z,21.20
2023-05-24T14:28:13.772Z,21.20
2023-05-24T14:30:41.497Z,21.10
2023-05-24T14:33:08.607Z,21.10
2023-05-24T14:35:39.273Z,21.10
2023-05-24T14:38:07.676Z,21.10
2023-05-24T14:40:36.801Z,21.00
2023-05-24T14:43:04.663Z,21.00
2023-05-24T14:45:31.455Z,21.00
2023-05-24T14:47:58.214Z,21.00
2023-05-24T14:50:25.007Z,21.00
2023-05-24T14:52:53.170Z,21.00
2023-05-24T14:55:21.966Z,21.10
2023-05-24T14:57:49.388Z,21.10
2023-05-24T15:00:18.021Z,21.10
2023-05-24T15:02:46.164Z,21.00
2023-05-24T15:05:12.853Z,21.00
2023-05-24T15:07:39.505Z,21.00
2023-05-24T15:10:06.714Z,21.00
2023-05-24T15:12:33.414Z,21.00
2023-05-24T15:15:00.061Z,21.00
2023-05-24T15:17:26.864Z,21.10
2023-05-24T15:19:54.172Z,21.20
2023-05-24T15:22:20.939Z,21.10
2023-05-24T15:24:47.626Z,21.00
2023-05-24T15:27:14.318Z,21.10
2023-05-24T15:29:40.983Z,21.10
2023-05-24T15:32:07.766Z,21.20
2023-05-24T15:34:34.487Z,21.20
2023-05-24T15:37:01.135Z,21.10
2023-05-24T15:39:27.896Z,21.20
2023-05-24T15:41:54.720Z,21.20
2023-05-24T15:44:21.395Z,21.10
2023-05-24T15:46:48.160Z,21.10
2023-05-24T15:49:14.848Z,21.00
2023-05-24T15:54:11.180Z,21.20
2023-05-24T15:56:37.877Z,21.10
2023-05-24T15:59:04.629Z,21.10
2023-05-24T16:01:31.296Z,21.10
2023-05-24T16:03:58.039Z,21.00
2023-05-24T16:06:24.743Z,21.10
2023-05-24T16:08:51.540Z,21.10
2023-05-24T16:11:20.227Z,21.10
2023-05-24T16:13:49.942Z,21.00
2023-05-24T16:16:16.653Z,21.00
2023-05-24T16:18:43.511Z,21.10
2023-05-24T16:21:10.507Z,21.10
2023-05-24T16:23:37.236Z,21.00
2023-05-24T16:26:03.901Z,21.00
2023-05-24T16:28:30.596Z,21.10
2023-05-24T16:30:58.663Z,21.10
2023-05-24T16:33:25.607Z,21.20
2023-05-24T16:35:55.760Z,21.20
2023-05-24T16:38:23.755Z,21.10
2023-05-24T16:40:50.876Z,21.20
2023-05-24T16:43:17.969Z,21.20
2023-05-24T16:45:45.111Z,21.20
2023-05-24T16:48:12.857Z,21.20
2023-05-24T16:50:39.847Z,21.20
2023-05-24T16:53:06.912Z,21.10
2023-05-24T16:55:33.733Z,21.10
2023-05-24T16:58:00.517Z,21.10
2023-05-24T17:00:27.356Z,21.20
2023-05-24T17:02:54.716Z,21.10
2023-05-24T17:05:21.522Z,21.20
2023-05-24T17:07:48.192Z,21.20
2023-05-24T17:10:14.848Z,21.20
2023-05-24T17:12:41.482Z,21.20
2023-05-24T17:15:08.713Z,21.20
2023-05-24T17:17:35.566Z,21.20
2023-05-24T17:20:02.551Z,21.20
2023-05-24T17:22:29.397Z,21.20
2023-05-24T17:24:56.076Z,21.20
2023-05-24T17:27:22.854Z,21.20
2023-05-24T17:29:49.563Z,21.20
2023-05-24T17:32:16.327Z,21.20
2023-05-24T17:34:42.973Z,21.20
2023-05-24T17:37:09.656Z,21.20
2023-05-24T17:39:36.313Z,21.20
2023-05-24T17:42:03.050Z,21.20
2023-05-24T17:44:29.746Z,21.20
2023-05-24T17:46:57.817Z,21.20
2023-05-24T17:49:24.568Z,21.20
2023-05-24T17:51:51.286Z,21.30
2023-05-24T17:54:18.213Z,21.30
2023-05-24T17:56:44.858Z,21.20
2023-05-24T17:59:11.521Z,21.20
2023-05-24T18:01:38.231Z,21.20
2023-05-24T18:04:06.976Z,21.30
2023-05-24T18:06:35.144Z,21.30
2023-05-24T18:09:01.786Z,21.30
2023-05-24T18:11:28.536Z,21.20
2023-05-24T18:13:55.206Z,21.20
2023-05-24T18:16:21.944Z,21.20
2023-05-24T18:18:48.694Z,21.20
2023-05-24T18:21:15.399Z,21.20
2023-05-24T18:23:42.464Z,21.20
2023-05-24T18:26:11.143Z,21.20
2023-05-24T18:28:38.866Z,21.20
2023-05-24T18:31:08.330Z,21.20
2023-05-24T18:33:35.289Z,21.20
2023-05-24T18:36:02.878Z,21.20
2023-05-24T18:38:29.561Z,21.20
2023-05-24T18:40:56.391Z,21.20
2023-05-24T18:43:23.091Z,21.20
2023-05-24T18:45:49.734Z,21.20
2023-05-24T18:48:16.376Z,21.20
2023-05-24T18:50:43.053Z,21.10
2023-05-24T18:53:09.815Z,21.20
2023-05-24T18:55:36.472Z,21.20
2023-05-24T18:58:03.540Z,21.20
2023-05-24T19:00:30.430Z,21.10
2023-05-24T19:02:57.155Z,21.20
2023-05-24T19:05:23.834Z,21.20
2023-05-24T19:07:50.499Z,21.20
2023-05-24T19:10:17.683Z,21.20
2023-05-24T19:12:44.518Z,21.20
2023-05-24T19:15:11.778Z,21.20
2023-05-24T19:17:40.797Z,21.20
2023-05-24T19:20:07.878Z,21.20
2023-05-24T19:22:34.543Z,21.20
2023-05-24T19:25:01.188Z,21.20
2023-05-24T19:27:28.287Z,21.20
2023-05-24T19:29:55.149Z,21.20
2023-05-24T19:32:21.965Z,21.20
2023-05-24T19:34:48.627Z,21.10
2023-05-24T19:37:15.756Z,21.10
2023-05-24T19:39:42.564Z,21.10
2023-05-24T19:42:09.776Z,21.10
2023-05-24T19:44:36.448Z,21.10
2023-05-24T19:47:03.598Z,21.10
2023-05-24T19:49:30.382Z,21.10
2023-05-24T19:51:57.064Z,21.10
2023-05-24T19:54:23.858Z,21.10
2023-05-24T19:56:51.795Z,21.10
2023-05-24T19:59:19.089Z,21.10
2023-05-24T20:01:45.909Z,21.00
2023-05-24T20:04:12.885Z,21.10
2023-05-24T20:06:40.084Z,21.00
2023-05-24T20:09:06.956Z,21.00
2023-05-24T20:11:34.552Z,21.00
2023-05-24T20:14:01.331Z,21.10
2023-05-24T20:16:28.293Z,21.00
2023-05-24T20:18:55.040Z,21.00
2023-05-24T20:21:21.723Z,21.00
2023-05-24T20:23:50.485Z,21.00
2023-05-24T20:26:17.135Z,21.00
2023-05-24T20:28:43.847Z,21.00
2023-05-24T20:31:10.629Z,21.00
2023-05-24T20:33:38.375Z,21.00
2023-05-24T20:36:05.671Z,21.00
2023-05-24T20:38:32.439Z,21.00
2023-05-24T20:40:59.735Z,21.00
2023-05-24T20:43:26.441Z,21.00
2023-05-24T20:45:53.107Z,21.00
2023-05-24T20:48:19.911Z,21.00
2023-05-24T20:50:46.610Z,21.00
2023-05-24T20:53:13.291Z,21.00
2023-05-24T20:55:39.934Z,21.00
2023-05-24T20:58:06.623Z,21.00
2023-05-24T21:00:33.419Z,21.00
2023-05-24T21:03:00.356Z,21.00
2023-05-24T21:05:27.136Z,21.00
2023-05-24T21:07:53.863Z,20.90
2023-05-24T21:10:20.553Z,21.00
2023-05-24T21:12:49.193Z,21.00
2023-05-24T21:15:16.087Z,21.00
2023-05-24T21:17:42.774Z,20.90
2023-05-24T21:20:09.840Z,20.90
2023-05-24T21:22:36.507Z,20.90
2023-05-24T21:25:04.746Z,20.90
2023-05-24T21:27:31.399Z,20.90
2023-05-24T21:29:58.150Z,20.90
2023-05-24T21:32:24.834Z,20.90
2023-05-24T21:34:51.503Z,20.90
2023-05-24T21:37:18.163Z,20.90
2023-05-24T21:39:44.998Z,20.90
2023-05-24T21:42:11.752Z,20.90
2023-05-24T21:44:38.437Z,20.90
2023-05-24T21:47:05.414Z,20.90
2023-05-24T21:49:32.103Z,20.90
2023-05-24T21:51:58.783Z,20.90
2023-05-24T21:54:25.583Z,20.90
2023-05-24T21:56:52.381Z,20.90
2023-05-24T21:59:21.131Z,20.90
2023-05-24T22:01:48.781Z,20.90
2023-05-24T22:04:15.722Z,20.90
2023-05-24T22:06:44.699Z,20.90
2023-05-24T22:09:13.482Z,20.90
2023-05-24T22:11:43.094Z,20.90
2023-05-24T22:14:10.810Z,20.90
2023-05-24T22:16:37.543Z,20.90
2023-05-24T22:19:11.494Z,20.90
2023-05-24T22:21:41.492Z,20.90
2023-05-24T22:24:09.051Z,20.90
2023-05-24T22:26:36.053Z,20.90
2023-05-24T22:29:04.261Z,20.90
2023-05-24T22:31:33.182Z,20.90
2023-05-24T22:34:03.302Z,20.90
2023-05-24T22:36:33.845Z,20.80
2023-05-24T22:39:01.431Z,20.80
2023-05-24T22:41:28.369Z,20.80
2023-05-24T22:43:56.373Z,20.90
2023-05-24T22:46:23.279Z,20.90
2023-05-24T22:48:53.829Z,20.90
2023-05-24T22:51:20.798Z,20.90
2023-05-24T22:53:49.121Z,20.90
2023-05-24T22:56:17.766Z,20.80
2023-05-24T22:58:44.438Z,20.90
2023-05-24T23:01:11.252Z,20.80
2023-05-24T23:03:37.916Z,20.80
2023-05-24T23:06:05.473Z,20.80
2023-05-24T23:08:33.096Z,20.80
2023-05-24T23:11:00.640Z,20.80
2023-05-24T23:13:33.695Z,20.80
2023-05-24T23:16:00.815Z,20.80
2023-05-24T23:18:27.748Z,20.80
2023-05-24T23:20:55.825Z,20.80
2023-05-24T23:23:24.643Z,20.80
2023-05-24T23:25:51.550Z,20.80
2023-05-24T23:28:18.260Z,20.80
2023-05-24T23:30:45.507Z,20.80
2023-05-24T23:33:12.154Z,20.80
2023-05-24T23:35:42.021Z,20.80
2023-05-24T23:38:18.020Z,20.80
2023-05-24T23:40:44.704Z,20.80
2023-05-24T23:43:11.386Z,20.80
2023-05-24T23:45:38.022Z,20.80
2023-05-24T23:48:04.818Z,20.80
2023-05-24T23:50:37.336Z,20.70
2023-05-24T23:53:09.719Z,20.80
2023-05-24T23:55:36.559Z,20.80
2023-05-24T23:58:03.391Z,20.80
